sensor_id;sensor_type;location;lat;lon;timestamp;P1;durP1;ratioP1;P2;durP2;ratioP2
57395;SDS011;43222;52.912;6.940;2022-12-07T00:00:29;13.27;;;4.20;;
57395;SDS011;43222;52.912;6.940;2022-12-07T00:02:55;9.88;;;3.67;;
57395;SDS011;43222;52.912;6.940;2022-12-07T00:05:21;12.15;;;3.60;;
57395;SDS011;43222;52.912;6.940;2022-12-07T00:07:47;9.52;;;2.78;;
57395;SDS011;43222;52.912;6.940;2022-12-07T00:10:13;12.50;;;3.20;;
57395;SDS011;43222;52.912;6.940;2022-12-07T00:12:39;14.05;;;3.20;;
57395;SDS011;43222;52.912;6.940;2022-12-07T00:15:05;9.40;;;2.67;;
57395;SDS011;43222;52.912;6.940;2022-12-07T00:17:31;13.02;;;3.50;;
57395;SDS011;43222;52.912;6.940;2022-12-07T00:19:58;13.85;;;3.20;;
57395;SDS011;43222;52.912;6.940;2022-12-07T00:22:24;12.20;;;2.97;;
57395;SDS011;43222;52.912;6.940;2022-12-07T00:24:50;12.25;;;2.85;;
57395;SDS011;43222;52.912;6.940;2022-12-07T00:27:16;9.65;;;2.35;;
57395;SDS011;43222;52.912;6.940;2022-12-07T00:29:42;12.55;;;2.97;;
57395;SDS011;43222;52.912;6.940;2022-12-07T00:32:08;9.95;;;2.50;;
57395;SDS011;43222;52.912;6.940;2022-12-07T00:34:35;10.77;;;2.13;;
57395;SDS011;43222;52.912;6.940;2022-12-07T00:37:01;14.32;;;2.45;;
57395;SDS011;43222;52.912;6.940;2022-12-07T00:39:27;10.95;;;2.28;;
57395;SDS011;43222;52.912;6.940;2022-12-07T00:41:53;9.60;;;2.00;;
57395;SDS011;43222;52.912;6.940;2022-12-07T00:44:19;10.18;;;2.03;;
57395;SDS011;43222;52.912;6.940;2022-12-07T00:46:45;9.15;;;1.67;;
57395;SDS011;43222;52.912;6.940;2022-12-07T00:49:11;9.68;;;1.95;;
57395;SDS011;43222;52.912;6.940;2022-12-07T00:51:37;11.23;;;2.10;;
57395;SDS011;43222;52.912;6.940;2022-12-07T00:54:03;11.95;;;1.80;;
57395;SDS011;43222;52.912;6.940;2022-12-07T00:56:29;13.77;;;2.20;;
57395;SDS011;43222;52.912;6.940;2022-12-07T01:01:22;10.70;;;1.90;;
57395;SDS011;43222;52.912;6.940;2022-12-07T01:03:48;9.10;;;1.80;;
57395;SDS011;43222;52.912;6.940;2022-12-07T01:06:15;11.20;;;1.60;;
57395;SDS011;43222;52.912;6.940;2022-12-07T01:08:41;12.32;;;2.10;;
57395;SDS011;43222;52.912;6.940;2022-12-07T01:11:07;12.15;;;1.48;;
57395;SDS011;43222;52.912;6.940;2022-12-07T01:13:35;8.55;;;1.88;;
57395;SDS011;43222;52.912;6.940;2022-12-07T01:16:02;8.50;;;1.90;;
57395;SDS011;43222;52.912;6.940;2022-12-07T01:18:30;12.70;;;1.60;;
57395;SDS011;43222;52.912;6.940;2022-12-07T01:21:18;9.38;;;1.50;;
57395;SDS011;43222;52.912;6.940;2022-12-07T01:23:42;9.52;;;1.60;;
57395;SDS011;43222;52.912;6.940;2022-12-07T01:26:12;9.50;;;1.75;;
57395;SDS011;43222;52.912;6.940;2022-12-07T01:28:38;12.50;;;1.65;;
57395;SDS011;43222;52.912;6.940;2022-12-07T01:31:05;10.25;;;1.80;;
57395;SDS011;43222;52.912;6.940;2022-12-07T01:33:33;6.43;;;1.40;;
57395;SDS011;43222;52.912;6.940;2022-12-07T01:36:00;11.20;;;2.20;;
57395;SDS011;43222;52.912;6.940;2022-12-07T01:38:26;10.27;;;1.92;;
57395;SDS011;43222;52.912;6.940;2022-12-07T01:40:53;9.43;;;1.48;;
57395;SDS011;43222;52.912;6.940;2022-12-07T01:43:19;9.18;;;1.60;;
57395;SDS011;43222;52.912;6.940;2022-12-07T01:45:46;11.30;;;2.05;;
57395;SDS011;43222;52.912;6.940;2022-12-07T01:48:13;9.93;;;1.70;;
57395;SDS011;43222;52.912;6.940;2022-12-07T01:50:39;15.60;;;2.10;;
57395;SDS011;43222;52.912;6.940;2022-12-07T01:53:06;10.93;;;2.00;;
57395;SDS011;43222;52.912;6.940;2022-12-07T01:55:35;13.43;;;1.85;;
57395;SDS011;43222;52.912;6.940;2022-12-07T01:58:03;7.65;;;1.52;;
57395;SDS011;43222;52.912;6.940;2022-12-07T02:00:29;9.68;;;1.75;;
57395;SDS011;43222;52.912;6.940;2022-12-07T02:05:25;9.65;;;1.80;;
57395;SDS011;43222;52.912;6.940;2022-12-07T02:07:52;11.93;;;1.63;;
57395;SDS011;43222;52.912;6.940;2022-12-07T02:10:20;10.70;;;1.70;;
57395;SDS011;43222;52.912;6.940;2022-12-07T02:12:48;7.88;;;1.48;;
57395;SDS011;43222;52.912;6.940;2022-12-07T02:15:14;8.52;;;1.60;;
57395;SDS011;43222;52.912;6.940;2022-12-07T02:20:50;7.03;;;1.45;;
57395;SDS011;43222;52.912;6.940;2022-12-07T02:23:03;15.32;;;1.70;;
57395;SDS011;43222;52.912;6.940;2022-12-07T02:30:47;8.85;;;1.25;;
57395;SDS011;43222;52.912;6.940;2022-12-07T02:33:16;10.73;;;1.60;;
57395;SDS011;43222;52.912;6.940;2022-12-07T02:41:02;10.18;;;1.50;;
57395;SDS011;43222;52.912;6.940;2022-12-07T02:43:32;9.95;;;1.30;;
57395;SDS011;43222;52.912;6.940;2022-12-07T02:46:03;9.57;;;1.48;;
57395;SDS011;43222;52.912;6.940;2022-12-07T02:48:30;8.13;;;1.20;;
57395;SDS011;43222;52.912;6.940;2022-12-07T02:50:57;12.60;;;1.70;;
57395;SDS011;43222;52.912;6.940;2022-12-07T02:58:41;9.57;;;1.20;;
57395;SDS011;43222;52.912;6.940;2022-12-07T03:01:32;9.45;;;1.17;;
57395;SDS011;43222;52.912;6.940;2022-12-07T03:04:03;9.65;;;1.20;;
57395;SDS011;43222;52.912;6.940;2022-12-07T03:06:31;7.55;;;1.08;;
57395;SDS011;43222;52.912;6.940;2022-12-07T03:11:30;10.13;;;1.08;;
57395;SDS011;43222;52.912;6.940;2022-12-07T03:14:13;10.05;;;1.25;;
57395;SDS011;43222;52.912;6.940;2022-12-07T03:16:42;11.80;;;1.40;;
57395;SDS011;43222;52.912;6.940;2022-12-07T03:19:15;9.70;;;1.20;;
57395;SDS011;43222;52.912;6.940;2022-12-07T03:21:44;13.77;;;1.30;;
57395;SDS011;43222;52.912;6.940;2022-12-07T03:24:13;8.10;;;1.33;;
57395;SDS011;43222;52.912;6.940;2022-12-07T03:26:46;9.90;;;1.10;;
57395;SDS011;43222;52.912;6.940;2022-12-07T03:29:23;11.73;;;1.48;;
57395;SDS011;43222;52.912;6.940;2022-12-07T03:31:52;10.00;;;1.17;;
57395;SDS011;43222;52.912;6.940;2022-12-07T03:34:30;7.22;;;1.02;;
57395;SDS011;43222;52.912;6.940;2022-12-07T03:37:00;9.88;;;1.15;;
57395;SDS011;43222;52.912;6.940;2022-12-07T03:39:30;10.73;;;1.30;;
57395;SDS011;43222;52.912;6.940;2022-12-07T03:41:59;11.32;;;1.38;;
57395;SDS011;43222;52.912;6.940;2022-12-07T03:44:26;9.18;;;1.30;;
57395;SDS011;43222;52.912;6.940;2022-12-07T03:49:23;7.80;;;1.25;;
57395;SDS011;43222;52.912;6.940;2022-12-07T03:54:19;14.15;;;1.20;;
57395;SDS011;43222;52.912;6.940;2022-12-07T03:56:47;13.48;;;1.45;;
57395;SDS011;43222;52.912;6.940;2022-12-07T03:59:13;6.20;;;0.88;;
57395;SDS011;43222;52.912;6.940;2022-12-07T04:01:51;9.23;;;1.25;;
57395;SDS011;43222;52.912;6.940;2022-12-07T04:04:18;11.02;;;1.08;;
57395;SDS011;43222;52.912;6.940;2022-12-07T04:06:44;5.63;;;0.85;;
57395;SDS011;43222;52.912;6.940;2022-12-07T04:09:10;9.20;;;1.35;;
57395;SDS011;43222;52.912;6.940;2022-12-07T04:11:36;6.53;;;0.95;;
57395;SDS011;43222;52.912;6.940;2022-12-07T04:14:02;9.77;;;1.00;;
57395;SDS011;43222;52.912;6.940;2022-12-07T04:16:47;9.20;;;1.30;;
57395;SDS011;43222;52.912;6.940;2022-12-07T04:19:14;9.70;;;1.40;;
57395;SDS011;43222;52.912;6.940;2022-12-07T04:21:40;5.82;;;0.80;;
57395;SDS011;43222;52.912;6.940;2022-12-07T04:24:06;7.13;;;1.20;;
57395;SDS011;43222;52.912;6.940;2022-12-07T04:26:32;7.45;;;0.93;;
57395;SDS011;43222;52.912;6.940;2022-12-07T04:28:58;7.82;;;1.08;;
57395;SDS011;43222;52.912;6.940;2022-12-07T04:31:24;14.35;;;1.10;;
57395;SDS011;43222;52.912;6.940;2022-12-07T04:33:51;8.13;;;1.17;;
57395;SDS011;43222;52.912;6.940;2022-12-07T04:36:17;11.20;;;1.20;;
57395;SDS011;43222;52.912;6.940;2022-12-07T04:38:44;11.70;;;1.10;;
57395;SDS011;43222;52.912;6.940;2022-12-07T04:41:10;7.75;;;0.90;;
57395;SDS011;43222;52.912;6.940;2022-12-07T04:43:37;8.52;;;1.15;;
57395;SDS011;43222;52.912;6.940;2022-12-07T04:46:03;5.00;;;0.90;;
57395;SDS011;43222;52.912;6.940;2022-12-07T04:48:29;8.73;;;1.02;;
57395;SDS011;43222;52.912;6.940;2022-12-07T04:50:55;8.05;;;1.02;;
57395;SDS011;43222;52.912;6.940;2022-12-07T04:53:22;12.52;;;1.35;;
57395;SDS011;43222;52.912;6.940;2022-12-07T04:55:48;4.72;;;0.90;;
57395;SDS011;43222;52.912;6.940;2022-12-07T04:58:14;7.03;;;1.20;;
57395;SDS011;43222;52.912;6.940;2022-12-07T05:00:40;6.90;;;1.30;;
57395;SDS011;43222;52.912;6.940;2022-12-07T05:03:06;7.22;;;1.13;;
57395;SDS011;43222;52.912;6.940;2022-12-07T05:05:32;11.05;;;1.45;;
57395;SDS011;43222;52.912;6.940;2022-12-07T05:07:58;8.18;;;1.00;;
57395;SDS011;43222;52.912;6.940;2022-12-07T05:10:24;13.35;;;1.33;;
57395;SDS011;43222;52.912;6.940;2022-12-07T05:12:50;11.15;;;1.40;;
57395;SDS011;43222;52.912;6.940;2022-12-07T05:15:16;8.10;;;1.20;;
57395;SDS011;43222;52.912;6.940;2022-12-07T05:17:43;7.07;;;1.00;;
57395;SDS011;43222;52.912;6.940;2022-12-07T05:20:09;10.60;;;1.90;;
57395;SDS011;43222;52.912;6.940;2022-12-07T05:22:35;8.30;;;1.20;;
57395;SDS011;43222;52.912;6.940;2022-12-07T05:25:01;14.50;;;1.40;;
57395;SDS011;43222;52.912;6.940;2022-12-07T05:27:27;7.65;;;1.30;;
57395;SDS011;43222;52.912;6.940;2022-12-07T05:29:53;7.13;;;1.02;;
57395;SDS011;43222;52.912;6.940;2022-12-07T05:32:19;9.13;;;1.90;;
57395;SDS011;43222;52.912;6.940;2022-12-07T05:34:45;9.85;;;1.42;;
57395;SDS011;43222;52.912;6.940;2022-12-07T05:37:11;14.20;;;1.30;;
57395;SDS011;43222;52.912;6.940;2022-12-07T05:39:38;14.30;;;1.60;;
57395;SDS011;43222;52.912;6.940;2022-12-07T05:42:06;10.57;;;1.10;;
57395;SDS011;43222;52.912;6.940;2022-12-07T05:44:38;10.30;;;1.42;;
57395;SDS011;43222;52.912;6.940;2022-12-07T05:47:04;13.65;;;1.52;;
57395;SDS011;43222;52.912;6.940;2022-12-07T05:49:30;11.07;;;1.42;;
57395;SDS011;43222;52.912;6.940;2022-12-07T05:51:57;11.20;;;1.50;;
57395;SDS011;43222;52.912;6.940;2022-12-07T05:54:23;12.48;;;1.20;;
57395;SDS011;43222;52.912;6.940;2022-12-07T05:56:49;15.38;;;1.27;;
57395;SDS011;43222;52.912;6.940;2022-12-07T05:59:15;9.00;;;1.10;;
57395;SDS011;43222;52.912;6.940;2022-12-07T06:01:47;10.93;;;1.25;;
57395;SDS011;43222;52.912;6.940;2022-12-07T06:04:13;12.27;;;1.27;;
57395;SDS011;43222;52.912;6.940;2022-12-07T06:06:39;14.02;;;1.45;;
57395;SDS011;43222;52.912;6.940;2022-12-07T06:09:06;8.35;;;1.30;;
57395;SDS011;43222;52.912;6.940;2022-12-07T06:11:32;5.55;;;1.17;;
57395;SDS011;43222;52.912;6.940;2022-12-07T06:14:16;14.35;;;1.38;;
57395;SDS011;43222;52.912;6.940;2022-12-07T06:16:42;11.30;;;1.50;;
57395;SDS011;43222;52.912;6.940;2022-12-07T06:19:09;11.57;;;1.50;;
57395;SDS011;43222;52.912;6.940;2022-12-07T06:21:35;8.25;;;1.52;;
57395;SDS011;43222;52.912;6.940;2022-12-07T06:24:01;11.85;;;1.27;;
57395;SDS011;43222;52.912;6.940;2022-12-07T06:26:27;7.53;;;1.23;;
57395;SDS011;43222;52.912;6.940;2022-12-07T06:28:53;7.53;;;1.15;;
57395;SDS011;43222;52.912;6.940;2022-12-07T06:31:19;9.35;;;1.10;;
57395;SDS011;43222;52.912;6.940;2022-12-07T06:33:45;13.32;;;1.67;;
57395;SDS011;43222;52.912;6.940;2022-12-07T06:36:11;10.75;;;1.50;;
57395;SDS011;43222;52.912;6.940;2022-12-07T06:38:37;12.95;;;1.40;;
57395;SDS011;43222;52.912;6.940;2022-12-07T06:41:03;9.60;;;1.60;;
57395;SDS011;43222;52.912;6.940;2022-12-07T06:43:30;13.02;;;1.40;;
57395;SDS011;43222;52.912;6.940;2022-12-07T06:45:56;11.35;;;1.40;;
57395;SDS011;43222;52.912;6.940;2022-12-07T06:48:22;9.50;;;1.65;;
57395;SDS011;43222;52.912;6.940;2022-12-07T06:50:48;13.65;;;1.70;;
57395;SDS011;43222;52.912;6.940;2022-12-07T06:53:14;10.57;;;1.60;;
57395;SDS011;43222;52.912;6.940;2022-12-07T06:55:40;10.02;;;1.73;;
57395;SDS011;43222;52.912;6.940;2022-12-07T06:58:06;11.75;;;1.50;;
57395;SDS011;43222;52.912;6.940;2022-12-07T07:00:33;12.27;;;1.20;;
57395;SDS011;43222;52.912;6.940;2022-12-07T07:03:00;18.60;;;1.63;;
57395;SDS011;43222;52.912;6.940;2022-12-07T07:05:26;11.18;;;1.20;;
57395;SDS011;43222;52.912;6.940;2022-12-07T07:07:52;12.80;;;1.20;;
57395;SDS011;43222;52.912;6.940;2022-12-07T07:10:18;7.65;;;1.13;;
57395;SDS011;43222;52.912;6.940;2022-12-07T07:12:44;11.43;;;1.33;;
57395;SDS011;43222;52.912;6.940;2022-12-07T07:15:10;10.27;;;1.35;;
57395;SDS011;43222;52.912;6.940;2022-12-07T07:17:37;15.18;;;1.50;;
57395;SDS011;43222;52.912;6.940;2022-12-07T07:20:03;12.80;;;1.48;;
57395;SDS011;43222;52.912;6.940;2022-12-07T07:22:29;8.68;;;1.02;;
57395;SDS011;43222;52.912;6.940;2022-12-07T07:24:55;10.85;;;1.48;;
57395;SDS011;43222;52.912;6.940;2022-12-07T07:27:21;14.93;;;2.10;;
57395;SDS011;43222;52.912;6.940;2022-12-07T07:29:48;11.55;;;1.58;;
57395;SDS011;43222;52.912;6.940;2022-12-07T07:32:14;13.20;;;1.40;;
57395;SDS011;43222;52.912;6.940;2022-12-07T07:34:40;13.07;;;1.40;;
57395;SDS011;43222;52.912;6.940;2022-12-07T07:37:06;13.88;;;1.45;;
57395;SDS011;43222;52.912;6.940;2022-12-07T07:39:32;9.23;;;1.08;;
57395;SDS011;43222;52.912;6.940;2022-12-07T07:41:58;11.55;;;1.42;;
57395;SDS011;43222;52.912;6.940;2022-12-07T07:44:24;7.22;;;1.13;;
57395;SDS011;43222;52.912;6.940;2022-12-07T07:46:50;11.25;;;1.25;;
57395;SDS011;43222;52.912;6.940;2022-12-07T07:49:17;11.57;;;1.60;;
57395;SDS011;43222;52.912;6.940;2022-12-07T07:51:43;11.27;;;1.40;;
57395;SDS011;43222;52.912;6.940;2022-12-07T07:54:09;12.63;;;1.80;;
57395;SDS011;43222;52.912;6.940;2022-12-07T07:56:35;7.70;;;1.25;;
57395;SDS011;43222;52.912;6.940;2022-12-07T07:59:01;10.80;;;1.40;;
57395;SDS011;43222;52.912;6.940;2022-12-07T08:01:27;10.48;;;1.27;;
57395;SDS011;43222;52.912;6.940;2022-12-07T08:03:53;10.93;;;1.40;;
57395;SDS011;43222;52.912;6.940;2022-12-07T08:06:19;10.20;;;1.48;;
57395;SDS011;43222;52.912;6.940;2022-12-07T08:08:45;10.15;;;1.30;;
57395;SDS011;43222;52.912;6.940;2022-12-07T08:11:11;11.52;;;1.50;;
57395;SDS011;43222;52.912;6.940;2022-12-07T08:13:37;15.43;;;1.30;;
57395;SDS011;43222;52.912;6.940;2022-12-07T08:16:04;10.77;;;1.52;;
57395;SDS011;43222;52.912;6.940;2022-12-07T08:18:31;6.88;;;1.45;;
57395;SDS011;43222;52.912;6.940;2022-12-07T08:21:00;8.00;;;1.10;;
57395;SDS011;43222;52.912;6.940;2022-12-07T08:23:26;8.93;;;1.45;;
57395;SDS011;43222;52.912;6.940;2022-12-07T08:25:52;10.20;;;1.50;;
57395;SDS011;43222;52.912;6.940;2022-12-07T08:28:18;9.90;;;1.33;;
57395;SDS011;43222;52.912;6.940;2022-12-07T08:30:44;11.35;;;1.50;;
57395;SDS011;43222;52.912;6.940;2022-12-07T08:33:10;11.77;;;1.30;;
57395;SDS011;43222;52.912;6.940;2022-12-07T08:35:37;9.73;;;1.50;;
57395;SDS011;43222;52.912;6.940;2022-12-07T08:38:03;6.25;;;1.23;;
57395;SDS011;43222;52.912;6.940;2022-12-07T08:40:30;10.32;;;1.35;;
57395;SDS011;43222;52.912;6.940;2022-12-07T08:42:56;7.82;;;1.00;;
57395;SDS011;43222;52.912;6.940;2022-12-07T08:45:22;9.45;;;1.17;;
57395;SDS011;43222;52.912;6.940;2022-12-07T08:50:26;9.93;;;1.40;;
57395;SDS011;43222;52.912;6.940;2022-12-07T08:52:54;11.85;;;1.77;;
57395;SDS011;43222;52.912;6.940;2022-12-07T08:55:20;12.32;;;1.50;;
57395;SDS011;43222;52.912;6.940;2022-12-07T08:57:47;11.88;;;1.67;;
57395;SDS011;43222;52.912;6.940;2022-12-07T09:00:13;11.05;;;1.67;;
57395;SDS011;43222;52.912;6.940;2022-12-07T09:02:41;12.35;;;1.50;;
57395;SDS011;43222;52.912;6.940;2022-12-07T09:05:08;11.00;;;1.48;;
57395;SDS011;43222;52.912;6.940;2022-12-07T09:07:34;11.00;;;1.52;;
57395;SDS011;43222;52.912;6.940;2022-12-07T09:10:01;14.15;;;2.15;;
57395;SDS011;43222;52.912;6.940;2022-12-07T09:12:27;16.08;;;1.75;;
57395;SDS011;43222;52.912;6.940;2022-12-07T09:14:53;13.77;;;1.55;;
57395;SDS011;43222;52.912;6.940;2022-12-07T09:17:19;12.93;;;2.05;;
57395;SDS011;43222;52.912;6.940;2022-12-07T09:19:45;11.27;;;1.33;;
57395;SDS011;43222;52.912;6.940;2022-12-07T09:22:12;10.93;;;1.40;;
57395;SDS011;43222;52.912;6.940;2022-12-07T09:24:38;11.52;;;1.63;;
57395;SDS011;43222;52.912;6.940;2022-12-07T09:27:04;17.67;;;1.98;;
57395;SDS011;43222;52.912;6.940;2022-12-07T09:29:30;10.10;;;1.67;;
57395;SDS011;43222;52.912;6.940;2022-12-07T09:31:56;13.75;;;1.67;;
57395;SDS011;43222;52.912;6.940;2022-12-07T09:34:22;10.05;;;1.60;;
57395;SDS011;43222;52.912;6.940;2022-12-07T09:36:48;9.13;;;1.90;;
57395;SDS011;43222;52.912;6.940;2022-12-07T09:39:14;14.05;;;1.80;;
57395;SDS011;43222;52.912;6.940;2022-12-07T09:41:41;13.98;;;1.58;;
57395;SDS011;43222;52.912;6.940;2022-12-07T09:44:13;11.90;;;1.80;;
57395;SDS011;43222;52.912;6.940;2022-12-07T09:46:41;16.30;;;1.77;;
57395;SDS011;43222;52.912;6.940;2022-12-07T09:49:09;15.43;;;1.90;;
57395;SDS011;43222;52.912;6.940;2022-12-07T09:51:37;14.95;;;2.35;;
57395;SDS011;43222;52.912;6.940;2022-12-07T09:54:03;14.23;;;1.40;;
57395;SDS011;43222;52.912;6.940;2022-12-07T09:56:29;13.73;;;1.70;;
57395;SDS011;43222;52.912;6.940;2022-12-07T09:59:00;16.85;;;1.70;;
57395;SDS011;43222;52.912;6.940;2022-12-07T10:01:30;13.45;;;1.70;;
57395;SDS011;43222;52.912;6.940;2022-12-07T10:04:10;14.30;;;1.60;;
57395;SDS011;43222;52.912;6.940;2022-12-07T10:06:38;14.73;;;1.55;;
57395;SDS011;43222;52.912;6.940;2022-12-07T10:09:11;10.82;;;1.60;;
57395;SDS011;43222;52.912;6.940;2022-12-07T10:11:57;12.30;;;1.88;;
57395;SDS011;43222;52.912;6.940;2022-12-07T10:14:23;18.92;;;1.75;;
57395;SDS011;43222;52.912;6.940;2022-12-07T10:16:49;19.95;;;2.10;;
57395;SDS011;43222;52.912;6.940;2022-12-07T10:22:01;22.02;;;2.20;;
57395;SDS011;43222;52.912;6.940;2022-12-07T10:24:27;9.95;;;2.17;;
57395;SDS011;43222;52.912;6.940;2022-12-07T10:26:53;15.52;;;2.72;;
57395;SDS011;43222;52.912;6.940;2022-12-07T10:29:33;20.50;;;2.38;;
57395;SDS011;43222;52.912;6.940;2022-12-07T10:32:29;13.35;;;1.88;;
57395;SDS011;43222;52.912;6.940;2022-12-07T10:34:56;20.58;;;2.40;;
57395;SDS011;43222;52.912;6.940;2022-12-07T10:37:40;15.40;;;2.15;;
57395;SDS011;43222;52.912;6.940;2022-12-07T10:40:23;11.20;;;1.35;;
57395;SDS011;43222;52.912;6.940;2022-12-07T10:42:59;13.52;;;1.50;;
57395;SDS011;43222;52.912;6.940;2022-12-07T10:45:25;15.00;;;1.75;;
57395;SDS011;43222;52.912;6.940;2022-12-07T10:47:55;9.32;;;1.48;;
57395;SDS011;43222;52.912;6.940;2022-12-07T10:58:52;12.07;;;1.20;;
57395;SDS011;43222;52.912;6.940;2022-12-07T11:09:16;7.90;;;1.25;;
57395;SDS011;43222;52.912;6.940;2022-12-07T11:17:02;10.10;;;1.20;;
57395;SDS011;43222;52.912;6.940;2022-12-07T11:22:34;17.58;;;2.22;;
57395;SDS011;43222;52.912;6.940;2022-12-07T11:27:32;28.58;;;3.30;;
57395;SDS011;43222;52.912;6.940;2022-12-07T11:30:22;8.90;;;1.30;;
57395;SDS011;43222;52.912;6.940;2022-12-07T11:37:59;33.55;;;3.45;;
57395;SDS011;43222;52.912;6.940;2022-12-07T11:40:29;15.13;;;2.25;;
57395;SDS011;43222;52.912;6.940;2022-12-07T11:43:20;22.55;;;2.85;;
57395;SDS011;43222;52.912;6.940;2022-12-07T11:45:51;23.60;;;3.30;;
57395;SDS011;43222;52.912;6.940;2022-12-07T11:48:35;20.38;;;2.80;;
57395;SDS011;43222;52.912;6.940;2022-12-07T11:51:03;18.15;;;2.05;;
57395;SDS011;43222;52.912;6.940;2022-12-07T11:53:37;13.57;;;1.95;;
57395;SDS011;43222;52.912;6.940;2022-12-07T11:56:17;9.75;;;1.63;;
57395;SDS011;43222;52.912;6.940;2022-12-07T11:58:47;13.95;;;1.75;;
57395;SDS011;43222;52.912;6.940;2022-12-07T12:03:42;10.80;;;1.58;;
57395;SDS011;43222;52.912;6.940;2022-12-07T12:06:10;12.07;;;1.52;;
57395;SDS011;43222;52.912;6.940;2022-12-07T12:08:39;8.95;;;1.73;;
57395;SDS011;43222;52.912;6.940;2022-12-07T12:21:40;5.93;;;0.85;;
57395;SDS011;43222;52.912;6.940;2022-12-07T12:24:11;8.30;;;1.23;;
57395;SDS011;43222;52.912;6.940;2022-12-07T12:26:39;5.68;;;1.67;;
57395;SDS011;43222;52.912;6.940;2022-12-07T12:29:26;8.43;;;1.23;;
57395;SDS011;43222;52.912;6.940;2022-12-07T12:37:14;13.35;;;2.65;;
57395;SDS011;43222;52.912;6.940;2022-12-07T12:40:12;8.45;;;1.27;;
57395;SDS011;43222;52.912;6.940;2022-12-07T12:42:46;9.23;;;1.55;;
57395;SDS011;43222;52.912;6.940;2022-12-07T12:45:19;7.75;;;1.75;;
57395;SDS011;43222;52.912;6.940;2022-12-07T12:50:45;13.85;;;2.50;;
57395;SDS011;43222;52.912;6.940;2022-12-07T12:53:15;9.77;;;2.22;;
57395;SDS011;43222;52.912;6.940;2022-12-07T12:56:02;10.43;;;2.10;;
57395;SDS011;43222;52.912;6.940;2022-12-07T12:58:36;8.77;;;2.42;;
57395;SDS011;43222;52.912;6.940;2022-12-07T13:03:51;15.30;;;5.13;;
57395;SDS011;43222;52.912;6.940;2022-12-07T13:08:50;15.77;;;3.63;;
57395;SDS011;43222;52.912;6.940;2022-12-07T13:11:17;16.67;;;3.42;;
57395;SDS011;43222;52.912;6.940;2022-12-07T13:13:44;13.50;;;2.70;;
57395;SDS011;43222;52.912;6.940;2022-12-07T13:18:36;15.77;;;2.58;;
57395;SDS011;43222;52.912;6.940;2022-12-07T13:31:31;9.32;;;1.90;;
57395;SDS011;43222;52.912;6.940;2022-12-07T13:33:58;12.63;;;1.95;;
57395;SDS011;43222;52.912;6.940;2022-12-07T13:36:25;11.30;;;2.08;;
57395;SDS011;43222;52.912;6.940;2022-12-07T13:38:58;12.98;;;2.22;;
57395;SDS011;43222;52.912;6.940;2022-12-07T13:41:26;9.95;;;1.40;;
57395;SDS011;43222;52.912;6.940;2022-12-07T13:44:00;9.27;;;1.60;;
57395;SDS011;43222;52.912;6.940;2022-12-07T13:46:31;6.95;;;1.30;;
57395;SDS011;43222;52.912;6.940;2022-12-07T13:48:58;9.10;;;1.90;;
57395;SDS011;43222;52.912;6.940;2022-12-07T13:51:25;6.78;;;1.50;;
57395;SDS011;43222;52.912;6.940;2022-12-07T13:53:56;6.80;;;1.00;;
57395;SDS011;43222;52.912;6.940;2022-12-07T13:56:31;7.72;;;1.13;;
57395;SDS011;43222;52.912;6.940;2022-12-07T13:58:58;5.22;;;1.17;;
57395;SDS011;43222;52.912;6.940;2022-12-07T14:01:24;6.35;;;1.00;;
57395;SDS011;43222;52.912;6.940;2022-12-07T14:03:50;6.00;;;0.88;;
57395;SDS011;43222;52.912;6.940;2022-12-07T14:06:22;6.53;;;1.10;;
57395;SDS011;43222;52.912;6.940;2022-12-07T14:08:50;5.45;;;0.88;;
57395;SDS011;43222;52.912;6.940;2022-12-07T14:11:17;5.00;;;1.00;;
57395;SDS011;43222;52.912;6.940;2022-12-07T14:13:49;6.35;;;1.08;;
57395;SDS011;43222;52.912;6.940;2022-12-07T14:16:27;3.92;;;1.00;;
57395;SDS011;43222;52.912;6.940;2022-12-07T14:18:54;5.63;;;1.05;;
57395;SDS011;43222;52.912;6.940;2022-12-07T14:21:24;5.78;;;0.90;;
57395;SDS011;43222;52.912;6.940;2022-12-07T14:26:37;5.07;;;1.02;;
57395;SDS011;43222;52.912;6.940;2022-12-07T14:29:37;2.85;;;0.73;;
57395;SDS011;43222;52.912;6.940;2022-12-07T14:31:57;5.97;;;0.90;;
57395;SDS011;43222;52.912;6.940;2022-12-07T14:34:24;4.80;;;0.82;;
57395;SDS011;43222;52.912;6.940;2022-12-07T14:36:50;4.63;;;0.73;;
57395;SDS011;43222;52.912;6.940;2022-12-07T14:39:16;4.68;;;0.68;;
57395;SDS011;43222;52.912;6.940;2022-12-07T14:41:42;5.70;;;0.95;;
57395;SDS011;43222;52.912;6.940;2022-12-07T14:44:21;6.13;;;0.82;;
57395;SDS011;43222;52.912;6.940;2022-12-07T14:46:48;4.03;;;0.73;;
57395;SDS011;43222;52.912;6.940;2022-12-07T14:49:14;5.43;;;1.20;;
57395;SDS011;43222;52.912;6.940;2022-12-07T14:51:40;4.03;;;0.70;;
57395;SDS011;43222;52.912;6.940;2022-12-07T14:54:11;5.00;;;0.82;;
57395;SDS011;43222;52.912;6.940;2022-12-07T14:56:39;3.97;;;0.90;;
57395;SDS011;43222;52.912;6.940;2022-12-07T14:59:06;5.65;;;0.80;;
57395;SDS011;43222;52.912;6.940;2022-12-07T15:01:33;3.72;;;0.80;;
57395;SDS011;43222;52.912;6.940;2022-12-07T15:03:59;6.22;;;1.02;;
57395;SDS011;43222;52.912;6.940;2022-12-07T15:06:25;5.25;;;0.88;;
57395;SDS011;43222;52.912;6.940;2022-12-07T15:08:51;6.65;;;0.98;;
57395;SDS011;43222;52.912;6.940;2022-12-07T15:11:17;7.93;;;1.00;;
57395;SDS011;43222;52.912;6.940;2022-12-07T15:13:43;5.20;;;0.93;;
57395;SDS011;43222;52.912;6.940;2022-12-07T15:16:28;5.13;;;1.05;;
57395;SDS011;43222;52.912;6.940;2022-12-07T15:18:54;3.10;;;0.90;;
57395;SDS011;43222;52.912;6.940;2022-12-07T15:21:20;5.75;;;1.00;;
57395;SDS011;43222;52.912;6.940;2022-12-07T15:23:46;5.55;;;1.25;;
57395;SDS011;43222;52.912;6.940;2022-12-07T15:26:13;5.10;;;1.58;;
57395;SDS011;43222;52.912;6.940;2022-12-07T15:28:39;4.95;;;1.40;;
57395;SDS011;43222;52.912;6.940;2022-12-07T15:31:12;8.35;;;1.30;;
57395;SDS011;43222;52.912;6.940;2022-12-07T15:33:38;6.55;;;1.10;;
57395;SDS011;43222;52.912;6.940;2022-12-07T15:36:04;7.25;;;1.58;;
57395;SDS011;43222;52.912;6.940;2022-12-07T15:38:31;10.20;;;2.50;;
57395;SDS011;43222;52.912;6.940;2022-12-07T15:40:57;7.60;;;1.10;;
57395;SDS011;43222;52.912;6.940;2022-12-07T15:43:23;6.57;;;1.50;;
57395;SDS011;43222;52.912;6.940;2022-12-07T15:46:07;7.00;;;1.35;;
57395;SDS011;43222;52.912;6.940;2022-12-07T15:48:33;5.63;;;1.42;;
57395;SDS011;43222;52.912;6.940;2022-12-07T15:51:03;10.48;;;3.63;;
57395;SDS011;43222;52.912;6.940;2022-12-07T15:53:29;7.35;;;1.90;;
57395;SDS011;43222;52.912;6.940;2022-12-07T15:55:55;4.75;;;1.10;;
57395;SDS011;43222;52.912;6.940;2022-12-07T15:58:21;7.60;;;1.55;;
57395;SDS011;43222;52.912;6.940;2022-12-07T16:00:47;5.18;;;1.60;;
57395;SDS011;43222;52.912;6.940;2022-12-07T16:03:13;7.28;;;1.45;;
57395;SDS011;43222;52.912;6.940;2022-12-07T16:05:40;5.75;;;1.33;;
57395;SDS011;43222;52.912;6.940;2022-12-07T16:08:06;6.50;;;1.70;;
57395;SDS011;43222;52.912;6.940;2022-12-07T16:10:32;8.15;;;2.28;;
57395;SDS011;43222;52.912;6.940;2022-12-07T16:12:58;6.40;;;1.98;;
57395;SDS011;43222;52.912;6.940;2022-12-07T16:15:24;9.30;;;2.10;;
57395;SDS011;43222;52.912;6.940;2022-12-07T16:17:51;7.63;;;2.10;;
57395;SDS011;43222;52.912;6.940;2022-12-07T16:20:18;7.25;;;2.47;;
57395;SDS011;43222;52.912;6.940;2022-12-07T16:22:44;5.70;;;2.10;;
57395;SDS011;43222;52.912;6.940;2022-12-07T16:25:10;13.90;;;3.00;;
57395;SDS011;43222;52.912;6.940;2022-12-07T16:27:36;5.90;;;1.95;;
57395;SDS011;43222;52.912;6.940;2022-12-07T16:30:03;8.45;;;1.70;;
57395;SDS011;43222;52.912;6.940;2022-12-07T16:32:29;6.78;;;1.80;;
57395;SDS011;43222;52.912;6.940;2022-12-07T16:34:55;6.78;;;1.90;;
57395;SDS011;43222;52.912;6.940;2022-12-07T16:37:21;9.55;;;2.53;;